Jiaxing, China
Current Conditions -  °F | °C
As of 12:00 PM on Thursday 29 Jan 2015 (Local Time) from ZSHC Reporting Station
Light Rain Light Rain  
Wind Chill: 32°   Ceiling: 2000
Heat Index: 37°   Visibility: 2.5mi
Dew Point: 34°   Wind: 7mph
Humidity: 87%   Direction: 10°N
Pressure: 30.3"   Gusts: NA
Location:  30.77°N, 120.75°E
Report Text: ZSHC 290400Z 01003MPS 330V050 4000 -RA BR SCT008BKN02003/01 Q1026 NOSIG
Loading
Personal Weather Stations






























Interactive Weather Map New forecast layout! Learn more

10-Day Weather Forecast

Advertisements
Track Severe Weather on mobile